Time;durP1;ratioP1;P1;durP2;ratioP2;P2;SDS_P1;SDS_P2;PMS_P1;PMS_P2;Temp;Humidity;BMP_temperature;BMP_pressure;BME280_temperature;BME280_humidity;BME280_pressure;Samples;Min_cycle;Max_cycle;Signal;HPM_P1;HPM_P2
2023/12/01 00:00:08;;;;;;;9.40;6.38;;;-2.50;69.40;;;;;;5057453;28;20075;-80
2023/12/01 00:02:36;;;;;;;11.00;6.28;;;-2.50;69.30;;;;;;5026760;28;20045;-79
2023/12/01 00:05:07;;;;;;;12.00;6.47;;;-2.50;69.30;;;;;;5052425;28;20055;-79
2023/12/01 00:07:35;;;;;;;12.27;6.55;;;-2.50;69.20;;;;;;5033225;28;20056;-78
2023/12/01 00:10:03;;;;;;;11.05;6.75;;;-2.50;69.20;;;;;;5045817;28;20562;-79
2023/12/01 00:12:31;;;;;;;12.40;6.15;;;-2.50;69.30;;;;;;5054879;28;20049;-79
2023/12/01 00:14:59;;;;;;;11.30;6.30;;;-2.50;69.30;;;;;;5049692;28;20527;-79
2023/12/01 00:17:28;;;;;;;9.32;6.40;;;-2.50;69.20;;;;;;5046948;28;20412;-80
2023/12/01 00:19:56;;;;;;;8.93;6.45;;;-2.50;69.10;;;;;;5073311;28;20053;-80
2023/12/01 00:22:24;;;;;;;15.18;6.68;;;-2.50;69.40;;;;;;5044060;28;20048;-79
2023/12/01 00:24:52;;;;;;;10.07;6.55;;;-2.50;69.40;;;;;;5061335;28;20512;-80
2023/12/01 00:27:20;;;;;;;11.40;7.18;;;-2.50;69.40;;;;;;5069353;28;20044;-79
2023/12/01 00:29:49;;;;;;;13.32;6.97;;;-2.50;69.30;;;;;;5050870;28;20578;-78
2023/12/01 00:32:20;;;;;;;10.15;6.93;;;-2.40;69.40;;;;;;5041188;28;20056;-80
2023/12/01 00:34:51;;;;;;;10.10;6.38;;;-2.40;69.40;;;;;;5066891;28;20099;-80
2023/12/01 00:37:19;;;;;;;10.00;6.32;;;-2.40;69.30;;;;;;5043939;28;20040;-78
2023/12/01 00:39:46;;;;;;;11.02;6.90;;;-2.50;69.10;;;;;;5033806;28;20095;-79
2023/12/01 00:42:14;;;;;;;10.60;6.10;;;-2.50;69.30;;;;;;5041543;28;20052;-79
2023/12/01 00:44:45;;;;;;;11.07;6.68;;;-2.50;69.30;;;;;;5050088;28;20520;-79
2023/12/01 00:47:13;;;;;;;11.05;6.35;;;-2.50;69.30;;;;;;5053662;28;20151;-79
2023/12/01 00:49:41;;;;;;;10.07;6.63;;;-2.50;69.30;;;;;;5051422;28;20148;-78
2023/12/01 00:52:10;;;;;;;13.90;7.22;;;-2.50;69.60;;;;;;5056552;28;20508;-79
2023/12/01 00:54:40;;;;;;;14.05;6.70;;;-2.40;69.60;;;;;;5060266;28;20048;-79
2023/12/01 00:57:08;;;;;;;12.60;6.60;;;-2.40;69.70;;;;;;5051534;28;20048;-78
2023/12/01 00:59:38;;;;;;;10.93;6.95;;;-2.40;69.60;;;;;;5046482;28;20476;-79
2023/12/01 01:02:08;;;;;;;14.50;6.97;;;-2.40;69.40;;;;;;5069000;28;20053;-80
2023/12/01 01:04:38;;;;;;;13.13;7.80;;;-2.40;69.50;;;;;;5048731;28;20505;-80
2023/12/01 01:07:12;;;;;;;13.13;7.65;;;-2.40;69.40;;;;;;5067646;28;20518;-81
2023/12/01 01:09:40;;;;;;;11.57;6.57;;;-2.40;69.40;;;;;;5031624;28;20059;-80
2023/12/01 01:12:08;;;;;;;12.43;7.40;;;-2.40;69.60;;;;;;5040937;28;20103;-81
2023/12/01 01:14:36;;;;;;;11.07;7.70;;;-2.30;69.50;;;;;;5050918;28;20501;-80
2023/12/01 01:17:04;;;;;;;12.20;8.05;;;-2.30;69.50;;;;;;5067493;28;20051;-80
2023/12/01 01:19:32;;;;;;;17.48;5.72;;;-2.40;69.40;;;;;;5049949;28;20044;-80
2023/12/01 01:22:00;;;;;;;13.27;7.32;;;-2.40;69.60;;;;;;5049895;28;20500;-80
2023/12/01 01:24:29;;;;;;;12.35;7.18;;;-2.40;69.50;;;;;;5068630;28;20584;-80
2023/12/01 01:26:57;;;;;;;14.55;7.97;;;-2.40;69.50;;;;;;5049895;28;20041;-80
2023/12/01 01:29:24;;;;;;;11.68;7.47;;;-2.40;69.60;;;;;;5047631;28;20053;-79
2023/12/01 01:31:52;;;;;;;12.02;7.78;;;-2.40;69.60;;;;;;5034157;28;20471;-79
2023/12/01 01:34:20;;;;;;;15.25;8.20;;;-2.40;69.50;;;;;;5051182;28;20040;-79
2023/12/01 01:36:48;;;;;;;16.95;8.30;;;-2.40;69.70;;;;;;5034589;28;20055;-80
2023/12/01 01:39:16;;;;;;;13.10;8.23;;;-2.40;69.60;;;;;;5051393;28;20052;-80
2023/12/01 01:41:45;;;;;;;14.32;7.70;;;-2.40;69.80;;;;;;5068924;28;20171;-81
2023/12/01 01:44:12;;;;;;;14.38;8.70;;;-2.40;69.70;;;;;;5051075;28;20045;-80
2023/12/01 01:46:42;;;;;;;17.17;8.52;;;-2.30;69.60;;;;;;5050790;28;20079;-80
2023/12/01 01:49:11;;;;;;;14.32;8.77;;;-2.30;69.50;;;;;;5047665;28;20057;-80
2023/12/01 01:51:39;;;;;;;13.00;8.38;;;-2.30;69.50;;;;;;5064406;28;20072;-80
2023/12/01 01:54:07;;;;;;;16.48;9.95;;;-2.20;69.60;;;;;;5067210;28;20059;-79
2023/12/01 01:56:36;;;;;;;15.00;9.00;;;-2.20;69.40;;;;;;5031077;28;20065;-81
2023/12/01 01:59:07;;;;;;;15.30;9.20;;;-2.20;69.40;;;;;;5068467;28;20045;-80
2023/12/01 02:01:39;;;;;;;18.02;8.68;;;-2.20;69.30;;;;;;5044385;28;20064;-80
2023/12/01 02:04:08;;;;;;;16.48;9.40;;;-2.20;69.40;;;;;;5066574;28;20080;-80
2023/12/01 02:06:37;;;;;;;17.95;9.63;;;-2.20;69.30;;;;;;5051107;28;20460;-81
2023/12/01 02:09:05;;;;;;;14.55;8.27;;;-2.20;69.50;;;;;;5069466;28;20048;-80
2023/12/01 02:11:32;;;;;;;13.88;8.23;;;-2.20;69.40;;;;;;5041316;28;20051;-79
2023/12/01 02:14:00;;;;;;;15.95;7.72;;;-2.20;70.10;;;;;;5045477;28;20501;-79
2023/12/01 02:16:30;;;;;;;13.70;8.40;;;-2.30;69.30;;;;;;5048362;28;20099;-79
2023/12/01 02:18:58;;;;;;;13.35;8.57;;;-2.30;69.50;;;;;;5044154;28;20080;-79
2023/12/01 02:21:28;;;;;;;13.55;8.32;;;-2.30;69.40;;;;;;5065707;28;20040;-78
2023/12/01 02:23:57;;;;;;;11.45;7.63;;;-2.30;69.60;;;;;;5033378;28;20053;-80
2023/12/01 02:26:25;;;;;;;19.17;8.35;;;-2.30;69.50;;;;;;5064078;28;20050;-79
2023/12/01 02:28:52;;;;;;;12.18;8.23;;;-2.30;69.60;;;;;;5062583;28;20472;-80
2023/12/01 02:31:20;;;;;;;13.07;8.05;;;-2.30;69.70;;;;;;5068332;28;20048;-80
2023/12/01 02:33:48;;;;;;;16.02;8.75;;;-2.30;69.70;;;;;;5050573;28;20066;-79
2023/12/01 02:36:17;;;;;;;12.73;7.88;;;-2.30;69.80;;;;;;5052258;28;20057;-79
2023/12/01 02:38:45;;;;;;;15.68;8.52;;;-2.30;69.90;;;;;;5024734;28;20072;-79
2023/12/01 02:41:17;;;;;;;16.17;8.45;;;-2.30;70.00;;;;;;5028292;28;20049;-80
2023/12/01 02:43:46;;;;;;;14.93;8.57;;;-2.30;70.00;;;;;;5055582;28;20049;-79
2023/12/01 02:46:14;;;;;;;21.27;11.38;;;-2.30;70.00;;;;;;5062608;28;20057;-79
2023/12/01 02:48:43;;;;;;;13.15;8.77;;;-2.30;70.00;;;;;;5047659;28;20044;-80
2023/12/01 02:51:10;;;;;;;16.73;8.60;;;-2.30;70.20;;;;;;5056432;28;20052;-79
2023/12/01 02:53:38;;;;;;;13.68;8.13;;;-2.40;70.30;;;;;;5050660;28;20419;-79
2023/12/01 02:56:07;;;;;;;15.57;8.68;;;-2.40;70.70;;;;;;5016554;28;20061;-80
2023/12/01 02:58:36;;;;;;;18.67;9.90;;;-2.40;70.80;;;;;;5058377;28;20088;-80
2023/12/01 03:01:04;;;;;;;14.02;8.88;;;-2.40;70.90;;;;;;5027189;28;20146;-79
2023/12/01 03:03:31;;;;;;;13.45;8.90;;;-2.40;70.80;;;;;;5071866;28;20098;-79
2023/12/01 03:05:59;;;;;;;17.20;9.63;;;-2.30;71.00;;;;;;5054388;28;20154;-79
2023/12/01 03:08:27;;;;;;;16.10;9.65;;;-2.40;70.80;;;;;;5071970;28;20508;-80
2023/12/01 03:10:55;;;;;;;14.32;8.50;;;-2.40;70.80;;;;;;5060208;28;20044;-81
2023/12/01 03:13:23;;;;;;;15.68;9.10;;;-2.40;70.80;;;;;;5022896;28;20075;-80
2023/12/01 03:15:52;;;;;;;19.55;10.32;;;-2.30;71.20;;;;;;5063427;28;20049;-80
2023/12/01 03:18:20;;;;;;;15.98;9.55;;;-2.30;71.10;;;;;;5046990;28;20045;-79
2023/12/01 03:20:47;;;;;;;15.32;9.30;;;-2.30;71.20;;;;;;5068150;28;20459;-81
2023/12/01 03:23:15;;;;;;;19.35;10.57;;;-2.40;71.10;;;;;;5056220;28;20063;-80
2023/12/01 03:25:43;;;;;;;18.25;9.63;;;-2.30;71.30;;;;;;5071758;28;20076;-80
2023/12/01 03:28:10;;;;;;;17.15;8.20;;;-2.30;71.20;;;;;;5046212;28;20045;-81
2023/12/01 03:30:38;;;;;;;18.95;9.68;;;-2.40;71.10;;;;;;5054173;28;20425;-80
2023/12/01 03:33:07;;;;;;;18.45;9.68;;;-2.30;71.50;;;;;;5074453;28;20487;-82
2023/12/01 03:35:34;;;;;;;21.73;10.13;;;-2.30;71.70;;;;;;5064360;28;20413;-81
2023/12/01 03:38:02;;;;;;;15.68;9.43;;;-2.30;71.70;;;;;;5071913;28;20044;-81
2023/12/01 03:40:30;;;;;;;17.40;10.25;;;-2.30;71.60;;;;;;5069829;28;20051;-82
2023/12/01 03:42:57;;;;;;;20.45;10.73;;;-2.30;71.80;;;;;;5066043;28;20575;-80
2023/12/01 03:45:25;;;;;;;18.67;9.63;;;-2.30;71.70;;;;;;5036783;28;20488;-80
2023/12/01 03:47:53;;;;;;;19.13;10.63;;;-2.40;71.50;;;;;;5039239;28;20080;-81
2023/12/01 03:50:22;;;;;;;23.75;11.82;;;-2.30;71.50;;;;;;5053597;28;20091;-82
2023/12/01 03:52:51;;;;;;;15.90;9.05;;;-2.40;71.40;;;;;;5057873;28;20063;-80
2023/12/01 03:55:20;;;;;;;21.30;10.20;;;-2.40;71.60;;;;;;5058791;28;20049;-80
2023/12/01 03:57:48;;;;;;;18.42;9.98;;;-2.40;71.50;;;;;;5027999;28;20045;-80
2023/12/01 04:00:17;;;;;;;18.65;9.25;;;-2.50;71.60;;;;;;5052196;28;20052;-80
2023/12/01 04:02:46;;;;;;;16.85;9.15;;;-2.50;71.50;;;;;;5060327;28;20064;-81
2023/12/01 04:05:18;;;;;;;18.60;10.20;;;-2.60;71.40;;;;;;5033902;28;20148;-81
2023/12/01 04:07:50;;;;;;;16.08;9.68;;;-2.50;71.60;;;;;;5074089;28;20049;-81
2023/12/01 04:10:18;;;;;;;18.13;9.88;;;-2.60;71.70;;;;;;5062534;28;20135;-81
2023/12/01 04:12:47;;;;;;;19.15;9.95;;;-2.60;71.80;;;;;;5033772;28;20055;-81
2023/12/01 04:15:19;;;;;;;24.70;12.77;;;-2.60;72.20;;;;;;5026568;28;20507;-80
2023/12/01 04:17:49;;;;;;;20.42;10.35;;;-2.60;72.40;;;;;;5036998;28;20416;-79
2023/12/01 04:20:25;;;;;;;21.25;10.60;;;-2.60;72.30;;;;;;5055043;28;20058;-80
2023/12/01 04:22:56;;;;;;;20.65;11.15;;;-2.50;72.30;;;;;;5056055;28;20053;-80
2023/12/01 04:25:28;;;;;;;16.45;10.80;;;-2.40;72.00;;;;;;5030032;28;20048;-80
2023/12/01 04:27:58;;;;;;;20.25;11.00;;;-2.50;71.70;;;;;;5041426;28;20045;-80
2023/12/01 04:30:27;;;;;;;22.00;9.75;;;-2.50;71.80;;;;;;5052580;28;20159;-83
2023/12/01 04:32:56;;;;;;;17.85;9.57;;;-2.40;71.60;;;;;;5053276;28;20057;-83
2023/12/01 04:35:27;;;;;;;16.77;9.70;;;-2.50;71.60;;;;;;5035898;28;20061;-84
2023/12/01 04:37:57;;;;;;;19.65;10.73;;;-2.50;71.70;;;;;;5036147;28;20072;-83
2023/12/01 04:40:27;;;;;;;17.70;9.60;;;-2.50;71.70;;;;;;5037271;28;20049;-83
2023/12/01 04:42:56;;;;;;;17.27;9.77;;;-2.60;71.50;;;;;;5057362;28;20045;-85
2023/12/01 04:45:27;;;;;;;18.85;9.95;;;-2.60;71.70;;;;;;5035194;28;20456;-81
2023/12/01 04:47:57;;;;;;;19.67;10.77;;;-2.70;71.60;;;;;;5053429;28;20053;-82
2023/12/01 04:50:27;;;;;;;20.17;10.00;;;-2.80;71.60;;;;;;5052351;28;20087;-81
2023/12/01 04:52:58;;;;;;;17.10;10.07;;;-2.80;71.90;;;;;;5047669;28;20140;-80
2023/12/01 04:55:27;;;;;;;18.48;9.40;;;-2.80;72.10;;;;;;5041221;28;20555;-81
2023/12/01 04:57:58;;;;;;;17.95;10.02;;;-2.90;72.00;;;;;;5060238;28;20036;-80
2023/12/01 05:00:28;;;;;;;19.20;10.20;;;-2.80;72.20;;;;;;5042934;28;20044;-80
2023/12/01 05:02:58;;;;;;;16.17;9.68;;;-2.90;72.20;;;;;;5039031;28;20063;-79
2023/12/01 05:05:28;;;;;;;21.20;9.50;;;-2.90;72.20;;;;;;5031979;28;20045;-83
2023/12/01 05:08:01;;;;;;;19.83;10.15;;;-2.90;72.40;;;;;;5029347;28;20127;-80
2023/12/01 05:10:30;;;;;;;18.67;9.57;;;-2.80;72.50;;;;;;5040774;28;20037;-81
2023/12/01 05:13:01;;;;;;;17.65;9.23;;;-2.80;72.40;;;;;;5049901;28;20056;-80
2023/12/01 05:15:31;;;;;;;21.85;9.32;;;-2.80;72.20;;;;;;5042516;28;20479;-79
2023/12/01 05:18:00;;;;;;;17.15;8.55;;;-2.70;72.30;;;;;;5042038;28;20045;-80
2023/12/01 05:20:29;;;;;;;18.65;9.82;;;-2.70;72.10;;;;;;5066315;28;20048;-80
2023/12/01 05:23:05;;;;;;;19.02;9.98;;;-2.60;72.00;;;;;;5052781;28;20058;-81
2023/12/01 05:25:33;;;;;;;15.88;9.20;;;-2.60;71.80;;;;;;5060177;28;20543;-81
2023/12/01 05:28:03;;;;;;;19.45;10.15;;;-2.50;71.80;;;;;;5029567;28;20085;-80
2023/12/01 05:30:33;;;;;;;17.08;9.85;;;-2.60;71.60;;;;;;5012535;28;20057;-80
2023/12/01 05:33:02;;;;;;;16.55;9.55;;;-2.50;71.80;;;;;;5014562;28;20045;-80
2023/12/01 05:35:30;;;;;;;18.70;10.52;;;-2.50;71.60;;;;;;5031720;28;20099;-80
2023/12/01 05:37:58;;;;;;;17.17;9.85;;;-2.40;71.40;;;;;;5030451;28;20131;-80
2023/12/01 05:40:30;;;;;;;17.13;9.52;;;-2.50;71.10;;;;;;5030266;28;20041;-81
2023/12/01 05:42:59;;;;;;;17.10;11.68;;;-2.50;71.30;;;;;;5030980;28;20076;-80
2023/12/01 05:45:28;;;;;;;16.90;10.38;;;-2.50;71.60;;;;;;5031580;28;20042;-80
2023/12/01 05:47:58;;;;;;;18.02;9.68;;;-2.40;71.70;;;;;;5014022;28;20045;-81
2023/12/01 05:50:27;;;;;;;24.27;10.60;;;-2.40;71.60;;;;;;5032360;28;20057;-79
2023/12/01 05:52:57;;;;;;;17.88;9.73;;;-2.40;71.30;;;;;;5030524;28;20045;-81
2023/12/01 05:55:28;;;;;;;16.17;9.70;;;-2.40;72.00;;;;;;5013747;28;20061;-80
2023/12/01 05:57:57;;;;;;;20.13;10.70;;;-2.30;71.30;;;;;;5047257;28;20076;-81
2023/12/01 06:00:29;;;;;;;18.55;10.15;;;-2.30;71.30;;;;;;5011605;28;20045;-80
2023/12/01 06:02:59;;;;;;;18.17;10.23;;;-2.30;71.40;;;;;;5012642;28;20758;-80
2023/12/01 06:05:28;;;;;;;17.90;9.50;;;-2.30;71.40;;;;;;5029962;28;20057;-80
2023/12/01 06:07:58;;;;;;;18.52;10.68;;;-2.30;71.50;;;;;;5036624;28;20050;-81
2023/12/01 06:10:31;;;;;;;23.27;11.57;;;-2.30;71.20;;;;;;5025233;28;20060;-80
2023/12/01 06:12:59;;;;;;;19.08;10.55;;;-2.30;71.30;;;;;;5029920;28;20512;-80
2023/12/01 06:15:30;;;;;;;18.27;10.68;;;-2.30;71.40;;;;;;5012181;28;20046;-82
2023/12/01 06:18:00;;;;;;;18.13;10.38;;;-2.30;71.40;;;;;;4997383;28;20042;-81
2023/12/01 06:20:29;;;;;;;19.55;11.10;;;-2.30;71.50;;;;;;4993031;28;20081;-83
2023/12/01 06:22:59;;;;;;;19.45;10.52;;;-2.30;71.30;;;;;;4980360;28;20050;-80
2023/12/01 06:25:31;;;;;;;23.27;11.18;;;-2.20;71.60;;;;;;5014369;28;20061;-79
2023/12/01 06:28:01;;;;;;;19.25;11.15;;;-2.30;71.60;;;;;;5015826;28;20465;-81
2023/12/01 06:30:34;;;;;;;20.73;10.75;;;-2.20;71.60;;;;;;5033841;28;20084;-80
2023/12/01 06:33:04;;;;;;;23.98;11.13;;;-2.10;71.40;;;;;;5015685;28;20057;-79
2023/12/01 06:35:32;;;;;;;21.25;10.68;;;-2.20;71.00;;;;;;4996199;28;20069;-81
2023/12/01 06:38:00;;;;;;;21.65;11.80;;;-2.20;71.00;;;;;;5014266;28;20045;-81
2023/12/01 06:40:33;;;;;;;18.40;11.23;;;-2.20;71.40;;;;;;5016417;28;20045;-81
2023/12/01 06:43:05;;;;;;;;;;;-2.20;71.40;;;;;;5041507;28;20045;-79
2023/12/01 06:45:37;;;;;;;24.73;10.77;;;-2.20;71.40;;;;;;5042387;28;20411;-82
2023/12/01 06:48:05;;;;;;;19.52;10.77;;;-2.20;71.50;;;;;;5042796;28;20053;-80
2023/12/01 06:50:33;;;;;;;20.05;11.50;;;-2.10;71.50;;;;;;5030150;28;20444;-80
2023/12/01 06:53:01;;;;;;;22.45;11.43;;;-2.10;71.20;;;;;;5032980;28;20064;-79
2023/12/01 06:55:30;;;;;;;26.98;12.77;;;-2.00;71.10;;;;;;5033713;28;20088;-80
2023/12/01 06:58:00;;;;;;;22.70;11.50;;;-2.00;71.00;;;;;;5011317;28;20045;-79
2023/12/01 07:00:34;;;;;;;20.83;11.15;;;-2.00;71.00;;;;;;5047944;28;20041;-81
2023/12/01 07:03:04;;;;;;;19.05;11.23;;;-2.00;71.00;;;;;;5029972;28;20156;-80
2023/12/01 07:05:35;;;;;;;19.25;12.10;;;-2.00;71.20;;;;;;5031172;28;20048;-78
2023/12/01 07:08:04;;;;;;;22.80;12.02;;;-1.90;71.00;;;;;;5052782;28;20075;-79
2023/12/01 07:10:34;;;;;;;21.02;11.93;;;-1.90;70.70;;;;;;5033694;28;20053;-78
2023/12/01 07:13:03;;;;;;;26.48;11.50;;;-1.90;70.80;;;;;;5055110;28;20060;-79
2023/12/01 07:15:31;;;;;;;23.15;11.18;;;-1.80;70.80;;;;;;5040808;28;20048;-78
2023/12/01 07:17:59;;;;;;;22.02;11.93;;;-1.80;70.70;;;;;;5042782;28;20069;-79
2023/12/01 07:20:27;;;;;;;24.77;13.32;;;-1.80;70.40;;;;;;5034100;28;20056;-78
2023/12/01 07:22:55;;;;;;;19.92;11.15;;;-1.70;70.60;;;;;;5022207;28;20496;-80
2023/12/01 07:25:23;;;;;;;18.63;10.68;;;-1.70;70.50;;;;;;5043618;28;20049;-79
2023/12/01 07:27:57;;;;;;;21.70;11.55;;;-1.70;70.40;;;;;;5002710;28;20076;-78
2023/12/01 07:30:27;;;;;;;19.23;11.20;;;-1.60;70.50;;;;;;5016622;28;20137;-79
2023/12/01 07:32:55;;;;;;;19.70;11.65;;;-1.60;70.30;;;;;;5031565;28;20096;-79
2023/12/01 07:35:23;;;;;;;20.13;11.38;;;-1.60;70.20;;;;;;4997805;28;20145;-78
2023/12/01 07:37:54;;;;;;;20.50;12.23;;;-1.60;70.00;;;;;;5032076;28;20057;-79
2023/12/01 07:40:24;;;;;;;21.92;12.00;;;-1.60;70.20;;;;;;5031554;28;20505;-78
2023/12/01 07:42:57;;;;;;;25.17;12.20;;;-1.60;70.40;;;;;;5018187;28;20575;-78
2023/12/01 07:45:27;;;;;;;23.85;13.02;;;-1.60;70.40;;;;;;5026871;28;20054;-79
2023/12/01 07:47:56;;;;;;;21.42;11.30;;;-1.50;70.30;;;;;;4994749;28;20061;-79
2023/12/01 07:50:25;;;;;;;25.40;12.63;;;-1.60;70.20;;;;;;4994491;28;20050;-79
2023/12/01 07:52:53;;;;;;;25.45;12.88;;;-1.50;70.10;;;;;;5030013;28;20103;-78
2023/12/01 07:55:22;;;;;;;19.48;12.63;;;-1.60;69.80;;;;;;5043601;28;20513;-78
2023/12/01 07:57:51;;;;;;;23.60;14.52;;;-1.60;70.20;;;;;;5013837;28;20402;-77
2023/12/01 08:00:21;;;;;;;21.60;12.20;;;-1.50;70.00;;;;;;5013521;28;20057;-78
2023/12/01 08:02:54;;;;;;;24.17;12.32;;;-1.50;70.20;;;;;;5031664;28;20050;-79
2023/12/01 08:05:22;;;;;;;27.95;12.77;;;-1.50;69.80;;;;;;4997070;28;20095;-79
2023/12/01 08:07:52;;;;;;;23.80;12.70;;;-1.60;70.00;;;;;;5014379;28;20049;-79
2023/12/01 08:10:22;;;;;;;22.27;12.15;;;-1.50;70.50;;;;;;5030783;28;20576;-78
2023/12/01 08:12:56;;;;;;;21.30;12.50;;;-1.50;70.70;;;;;;5013488;28;20495;-77
2023/12/01 08:15:25;;;;;;;25.08;13.30;;;-1.40;70.50;;;;;;5028646;28;20049;-79
2023/12/01 08:17:53;;;;;;;21.60;12.93;;;-1.30;69.90;;;;;;5031680;28;20088;-79
2023/12/01 08:20:21;;;;;;;22.35;12.85;;;-1.30;69.80;;;;;;5029766;28;20095;-79
2023/12/01 08:22:49;;;;;;;24.77;12.95;;;-1.20;69.60;;;;;;5030060;28;20045;-78
2023/12/01 08:25:21;;;;;;;25.55;12.30;;;-1.20;69.30;;;;;;5031267;28;20256;-79
2023/12/01 08:27:51;;;;;;;21.35;12.52;;;-1.20;69.60;;;;;;5031318;28;20073;-79
2023/12/01 08:30:19;;;;;;;22.02;12.35;;;-1.20;69.70;;;;;;5045192;28;20045;-80
2023/12/01 08:32:48;;;;;;;20.55;11.77;;;-1.10;69.50;;;;;;5013519;28;20049;-79
2023/12/01 08:35:16;;;;;;;22.85;12.88;;;-1.10;68.80;;;;;;5013351;28;20056;-79
2023/12/01 08:37:44;;;;;;;21.80;11.95;;;-1.10;68.20;;;;;;5030723;28;20365;-77
2023/12/01 08:40:13;;;;;;;21.42;12.40;;;-1.10;68.60;;;;;;5024010;28;20049;-78
2023/12/01 08:42:42;;;;;;;22.15;12.57;;;-1.00;68.70;;;;;;5016995;28;20045;-78
2023/12/01 08:45:10;;;;;;;21.63;11.75;;;-1.00;68.50;;;;;;5033224;28;20060;-78
2023/12/01 08:47:40;;;;;;;22.80;12.25;;;-0.90;68.50;;;;;;5029850;28;20638;-79
2023/12/01 08:50:10;;;;;;;19.67;12.70;;;-0.90;68.40;;;;;;4989121;28;20454;-79
2023/12/01 08:52:38;;;;;;;27.98;13.48;;;-0.90;68.10;;;;;;5029263;28;20048;-81
2023/12/01 08:55:07;;;;;;;20.55;12.43;;;-0.90;68.10;;;;;;5030597;28;20053;-82
2023/12/01 08:57:38;;;;;;;30.08;13.73;;;-0.90;68.20;;;;;;5013332;28;20320;-81
2023/12/01 09:00:08;;;;;;;23.05;12.85;;;-1.00;67.90;;;;;;5029886;28;20049;-80
2023/12/01 09:02:36;;;;;;;22.00;12.48;;;-1.00;68.30;;;;;;5020700;28;20041;-81
2023/12/01 09:05:11;;;;;;;24.92;13.95;;;-1.00;68.80;;;;;;5016611;28;20521;-80
2023/12/01 09:07:39;;;;;;;24.65;13.18;;;-0.90;68.50;;;;;;5027730;28;20103;-79
2023/12/01 09:10:08;;;;;;;21.52;13.05;;;-1.00;69.10;;;;;;5012642;28;20050;-80
2023/12/01 09:12:36;;;;;;;25.38;13.80;;;-1.00;68.70;;;;;;5013110;28;20049;-80
2023/12/01 09:15:05;;;;;;;25.50;14.25;;;-1.00;68.70;;;;;;5012360;28;20049;-81
2023/12/01 09:17:36;;;;;;;23.50;13.55;;;-1.00;68.70;;;;;;4995452;28;20054;-81
2023/12/01 09:20:05;;;;;;;23.70;14.00;;;-1.00;69.00;;;;;;5029245;28;20053;-81
2023/12/01 09:22:34;;;;;;;25.00;13.10;;;-1.00;68.80;;;;;;5030373;28;20052;-80
2023/12/01 09:25:02;;;;;;;21.60;12.90;;;-0.90;68.60;;;;;;5014259;28;20049;-80
2023/12/01 09:27:32;;;;;;;26.13;13.50;;;-1.00;70.00;;;;;;4993754;28;20161;-82
2023/12/01 09:29:59;;;;;;;24.13;14.10;;;-0.90;72.30;;;;;;5032942;28;20057;-81
2023/12/01 09:32:39;;;;;;;21.85;11.43;;;-0.60;71.00;;;;;;5048229;28;20072;-80
2023/12/01 09:35:09;;;;;;;21.92;12.45;;;-0.50;68.60;;;;;;5048261;28;20073;-81
2023/12/01 09:37:38;;;;;;;19.23;11.93;;;-0.40;68.20;;;;;;5049694;28;20052;-80
2023/12/01 09:40:08;;;;;;;23.60;12.75;;;-0.20;67.30;;;;;;5049346;28;20060;-80
2023/12/01 09:42:39;;;;;;;18.60;12.20;;;-0.20;66.20;;;;;;5030446;28;20119;-79
2023/12/01 09:45:10;;;;;;;16.90;11.35;;;-0.30;65.90;;;;;;5038635;28;20041;-79
2023/12/01 09:47:45;;;;;;;19.90;12.32;;;-0.40;65.60;;;;;;5048686;28;20566;-80
2023/12/01 09:50:15;;;;;;;21.85;11.88;;;-0.50;65.90;;;;;;5022818;28;20137;-81
2023/12/01 09:52:44;;;;;;;21.05;12.25;;;-0.40;66.10;;;;;;5049800;28;20114;-80
2023/12/01 09:55:15;;;;;;;20.77;12.57;;;-0.40;65.80;;;;;;5050263;28;20044;-79
2023/12/01 10:00:59;;;;;;;22.75;12.07;;;-0.30;65.70;;;;;;4963750;28;20110;-80
2023/12/01 10:03:28;;;;;;;16.55;11.88;;;-0.20;65.50;;;;;;4959480;28;20047;-80
2023/12/01 10:05:59;;;;;;;20.17;11.27;;;0.00;65.00;;;;;;4938967;29;20070;-78
2023/12/01 10:08:28;;;;;;;21.13;12.48;;;0.20;64.30;;;;;;4935367;29;20055;-80
2023/12/01 10:10:58;;;;;;;22.65;13.48;;;0.10;63.80;;;;;;4941303;29;20059;-78
2023/12/01 10:13:28;;;;;;;23.85;14.85;;;0.20;71.50;;;;;;4919469;29;20071;-79
2023/12/01 10:16:00;;;;;;;24.70;13.57;;;0.30;66.00;;;;;;4950544;29;20102;-79
2023/12/01 10:18:34;;;;;;;24.15;13.75;;;0.30;65.00;;;;;;4955529;29;20055;-80
2023/12/01 10:21:03;;;;;;;23.38;13.35;;;0.30;64.70;;;;;;4954941;29;20055;-81
2023/12/01 10:23:33;;;;;;;22.17;12.85;;;0.30;64.50;;;;;;4955347;29;20047;-80
2023/12/01 10:26:03;;;;;;;21.58;12.55;;;0.40;64.40;;;;;;4937609;29;20051;-79
2023/12/01 10:28:43;;;;;;;19.90;12.73;;;0.40;64.10;;;;;;4954719;29;20146;-80
2023/12/01 10:31:11;;;;;;;18.27;12.02;;;0.50;63.40;;;;;;4954879;29;20055;-81
2023/12/01 10:33:40;;;;;;;19.50;12.13;;;0.50;63.40;;;;;;4955055;29;20047;-79
2023/12/01 10:36:10;;;;;;;19.60;12.07;;;0.50;62.90;;;;;;4955543;28;20047;-80
2023/12/01 10:38:40;;;;;;;19.27;11.15;;;0.40;62.80;;;;;;4956714;29;20055;-79
2023/12/01 10:41:09;;;;;;;21.55;12.05;;;0.40;62.90;;;;;;4933525;29;20040;-82
2023/12/01 10:43:38;;;;;;;22.77;11.65;;;0.50;63.00;;;;;;4939852;29;20055;-81
2023/12/01 10:46:08;;;;;;;18.55;12.10;;;0.50;62.90;;;;;;4920178;29;20044;-81
2023/12/01 10:48:36;;;;;;;21.13;12.77;;;0.50;62.30;;;;;;4908320;29;20146;-80
2023/12/01 10:51:05;;;;;;;18.30;12.57;;;0.50;62.60;;;;;;4912166;29;20508;-80
2023/12/01 10:53:33;;;;;;;16.73;11.30;;;0.50;62.50;;;;;;4929090;29;20055;-80
2023/12/01 10:56:04;;;;;;;29.67;12.75;;;0.50;62.70;;;;;;4946979;29;20054;-80
2023/12/01 10:58:35;;;;;;;21.00;11.85;;;0.50;62.70;;;;;;4947547;28;20576;-80
2023/12/01 11:01:07;;;;;;;21.40;12.05;;;0.40;62.50;;;;;;4923412;28;20075;-80
2023/12/01 11:03:41;;;;;;;19.83;11.77;;;0.20;62.90;;;;;;4958497;28;20053;-80
2023/12/01 11:06:29;;;;;;;21.63;13.27;;;0.10;63.50;;;;;;4935505;29;20051;-79
2023/12/01 11:09:11;;;;;;;25.40;13.00;;;0.10;63.80;;;;;;4937085;29;20062;-79
2023/12/01 11:11:55;;;;;;;22.48;13.35;;;0.10;64.20;;;;;;4937167;29;20066;-79
2023/12/01 11:14:30;;;;;;;25.00;13.90;;;0.10;64.30;;;;;;4936703;29;20058;-80
2023/12/01 11:17:06;;;;;;;18.70;11.75;;;0.20;64.10;;;;;;4952464;29;20055;-80
2023/12/01 11:19:41;;;;;;;22.10;12.07;;;0.20;63.80;;;;;;4953905;28;20079;-81
2023/12/01 11:22:27;;;;;;;20.27;11.07;;;0.20;63.30;;;;;;4953651;29;20055;-79
2023/12/01 11:24:59;;;;;;;21.05;12.00;;;0.10;63.50;;;;;;4932867;29;20078;-79
2023/12/01 11:27:38;;;;;;;18.75;11.63;;;0.10;63.60;;;;;;4940505;29;20044;-78
2023/12/01 11:30:11;;;;;;;19.90;11.48;;;0.10;63.70;;;;;;4950300;29;20131;-79
2023/12/01 11:32:42;;;;;;;19.92;11.15;;;0.20;63.10;;;;;;4935184;29;20112;-78
2023/12/01 11:35:14;;;;;;;18.95;11.82;;;0.10;63.30;;;;;;4934665;29;20055;-78
2023/12/01 11:38:03;;;;;;;19.30;11.37;;;-0.10;63.80;;;;;;4934032;29;20142;-80
2023/12/01 11:40:40;;;;;;;21.25;11.88;;;-0.20;65.10;;;;;;4944687;29;20140;-79
2023/12/01 11:43:12;;;;;;;17.77;10.73;;;-0.20;65.10;;;;;;4936125;29;20552;-78
2023/12/01 11:45:41;;;;;;;17.88;11.23;;;-0.20;64.80;;;;;;4954022;29;20475;-79
2023/12/01 11:48:10;;;;;;;22.02;10.60;;;-0.30;64.40;;;;;;4949234;28;20142;-79
2023/12/01 11:50:46;;;;;;;19.30;11.07;;;-0.40;64.50;;;;;;4923109;29;20070;-82
2023/12/01 11:53:18;;;;;;;19.30;10.90;;;-0.50;65.00;;;;;;4934509;29;20133;-81
2023/12/01 11:55:51;;;;;;;19.40;12.10;;;-0.50;65.20;;;;;;4949918;29;20435;-81
2023/12/01 11:58:24;;;;;;;122.38;52.58;;;-0.60;65.50;;;;;;4935860;29;20059;-81
2023/12/01 12:00:53;;;;;;;;;;;-0.70;65.90;;;;;;4954836;29;20138;-81
2023/12/01 12:03:24;;;;;;;17.40;11.25;;;-0.80;65.70;;;;;;4951931;29;19957;-82
2023/12/01 12:05:56;;;;;;;19.02;11.80;;;-0.80;66.00;;;;;;4958280;28;20082;-81
2023/12/01 12:08:26;;;;;;;18.48;11.05;;;-0.90;66.40;;;;;;4938613;28;20051;-81
2023/12/01 12:11:11;;;;;;;20.83;11.50;;;-0.90;66.90;;;;;;4902290;29;20507;-82
2023/12/01 12:13:41;;;;;;;16.60;10.20;;;-0.80;67.10;;;;;;4813424;29;20068;-82
2023/12/01 12:16:10;;;;;;;19.52;11.90;;;-1.10;67.00;;;;;;4670978;30;20055;-82
2023/12/01 12:18:38;;;;;;;20.02;11.20;;;-1.10;67.40;;;;;;4537204;31;20152;-82
2023/12/01 12:21:08;;;;;;;16.95;11.15;;;-1.20;67.90;;;;;;4574928;30;20067;-82
2023/12/01 12:23:37;;;;;;;18.20;11.43;;;-1.20;68.30;;;;;;4672096;30;20068;-81
2023/12/01 12:26:19;;;;;;;17.20;10.30;;;-1.10;68.10;;;;;;4725680;30;20060;-80
2023/12/01 12:28:53;;;;;;;18.95;12.43;;;-1.10;68.10;;;;;;4730988;30;20069;-80
2023/12/01 12:31:25;;;;;;;26.20;10.75;;;-1.20;68.30;;;;;;4677407;30;20055;-81
2023/12/01 12:33:53;;;;;;;16.02;10.05;;;-1.30;68.50;;;;;;4535258;30;1357364;-81
2023/12/01 12:36:23;;;;;;;18.98;11.27;;;-1.30;68.30;;;;;;4592692;31;20056;-81
2023/12/01 12:38:51;;;;;;;18.15;10.65;;;-1.40;68.60;;;;;;4538854;31;20050;-82
2023/12/01 12:41:27;;;;;;;19.70;10.25;;;-1.30;68.80;;;;;;4553113;31;20065;-80
2023/12/01 12:43:59;;;;;;;15.35;11.00;;;-1.30;68.90;;;;;;4536220;31;20431;-79
2023/12/01 12:46:29;;;;;;;21.65;11.55;;;-1.30;68.60;;;;;;4551715;31;20126;-82
2023/12/01 12:48:59;;;;;;;17.67;9.85;;;-1.40;68.40;;;;;;4549158;31;20069;-82